sensor_id;sensor_type;location;lat;lon;timestamp;temperature;humidity
19435;DHT22;9853;50.848;4.108;2022-08-26T00:01:54;21.80;99.90
19435;DHT22;9853;50.848;4.108;2022-08-26T00:03:56;21.80;99.90
19435;DHT22;9853;50.848;4.108;2022-08-26T00:05:58;21.80;99.90
19435;DHT22;9853;50.848;4.108;2022-08-26T00:07:59;21.70;99.90
19435;DHT22;9853;50.848;4.108;2022-08-26T00:09:59;21.70;99.90
19435;DHT22;9853;50.848;4.108;2022-08-26T00:12:00;21.60;99.90
19435;DHT22;9853;50.848;4.108;2022-08-26T00:14:01;21.70;99.90
19435;DHT22;9853;50.848;4.108;2022-08-26T00:16:03;21.70;99.90
19435;DHT22;9853;50.848;4.108;2022-08-26T00:18:04;21.70;99.90
19435;DHT22;9853;50.848;4.108;2022-08-26T00:20:06;21.80;99.90
19435;DHT22;9853;50.848;4.108;2022-08-26T00:22:09;21.80;99.90
19435;DHT22;9853;50.848;4.108;2022-08-26T00:24:09;21.60;99.90
19435;DHT22;9853;50.848;4.108;2022-08-26T00:26:11;21.60;99.90
19435;DHT22;9853;50.848;4.108;2022-08-26T00:28:12;21.60;99.90
19435;DHT22;9853;50.848;4.108;2022-08-26T00:30:19;21.70;99.90
19435;DHT22;9853;50.848;4.108;2022-08-26T00:32:20;21.80;99.90
19435;DHT22;9853;50.848;4.108;2022-08-26T00:34:20;21.60;99.90
19435;DHT22;9853;50.848;4.108;2022-08-26T00:36:21;21.70;99.90
19435;DHT22;9853;50.848;4.108;2022-08-26T00:38:23;21.70;99.90
19435;DHT22;9853;50.848;4.108;2022-08-26T00:40:34;21.70;99.90
19435;DHT22;9853;50.848;4.108;2022-08-26T00:42:36;21.70;99.90
19435;DHT22;9853;50.848;4.108;2022-08-26T00:44:36;21.70;99.90
19435;DHT22;9853;50.848;4.108;2022-08-26T00:46:41;21.40;99.90
19435;DHT22;9853;50.848;4.108;2022-08-26T00:48:46;21.50;99.90
19435;DHT22;9853;50.848;4.108;2022-08-26T00:51:05;21.60;99.90
19435;DHT22;9853;50.848;4.108;2022-08-26T00:53:10;21.60;99.90
19435;DHT22;9853;50.848;4.108;2022-08-26T00:55:28;21.50;99.90
19435;DHT22;9853;50.848;4.108;2022-08-26T00:57:31;21.70;99.90
19435;DHT22;9853;50.848;4.108;2022-08-26T00:59:32;21.80;99.90
19435;DHT22;9853;50.848;4.108;2022-08-26T01:01:34;22.10;99.90
19435;DHT22;9853;50.848;4.108;2022-08-26T01:03:36;21.80;99.90
19435;DHT22;9853;50.848;4.108;2022-08-26T01:05:39;21.40;99.90
19435;DHT22;9853;50.848;4.108;2022-08-26T01:07:42;21.30;99.90
19435;DHT22;9853;50.848;4.108;2022-08-26T01:09:43;21.40;99.90
19435;DHT22;9853;50.848;4.108;2022-08-26T01:11:45;21.70;99.90
19435;DHT22;9853;50.848;4.108;2022-08-26T01:13:47;21.80;99.90
19435;DHT22;9853;50.848;4.108;2022-08-26T01:15:54;21.80;99.90
19435;DHT22;9853;50.848;4.108;2022-08-26T01:17:56;21.50;99.90
19435;DHT22;9853;50.848;4.108;2022-08-26T01:20:17;21.30;99.90
19435;DHT22;9853;50.848;4.108;2022-08-26T01:22:27;21.40;99.90
19435;DHT22;9853;50.848;4.108;2022-08-26T01:24:30;21.30;99.90
19435;DHT22;9853;50.848;4.108;2022-08-26T01:26:36;21.30;99.90
19435;DHT22;9853;50.848;4.108;2022-08-26T01:28:40;21.30;99.90
19435;DHT22;9853;50.848;4.108;2022-08-26T01:30:42;21.30;99.90
19435;DHT22;9853;50.848;4.108;2022-08-26T01:32:45;21.30;99.90
19435;DHT22;9853;50.848;4.108;2022-08-26T01:34:47;21.20;99.90
19435;DHT22;9853;50.848;4.108;2022-08-26T01:36:50;21.30;99.90
19435;DHT22;9853;50.848;4.108;2022-08-26T01:38:52;21.70;99.90
19435;DHT22;9853;50.848;4.108;2022-08-26T01:40:53;21.80;99.90
19435;DHT22;9853;50.848;4.108;2022-08-26T01:42:54;21.60;99.90
19435;DHT22;9853;50.848;4.108;2022-08-26T01:45:07;21.60;99.90
19435;DHT22;9853;50.848;4.108;2022-08-26T01:47:11;21.70;99.90
19435;DHT22;9853;50.848;4.108;2022-08-26T01:49:13;21.40;99.90
19435;DHT22;9853;50.848;4.108;2022-08-26T01:51:15;21.20;99.90
19435;DHT22;9853;50.848;4.108;2022-08-26T01:53:17;21.70;99.90
19435;DHT22;9853;50.848;4.108;2022-08-26T01:55:19;21.90;99.90
19435;DHT22;9853;50.848;4.108;2022-08-26T01:57:21;21.50;99.90
19435;DHT22;9853;50.848;4.108;2022-08-26T01:59:23;21.60;99.90
19435;DHT22;9853;50.848;4.108;2022-08-26T02:01:25;21.40;99.90
19435;DHT22;9853;50.848;4.108;2022-08-26T02:03:27;21.30;99.90
19435;DHT22;9853;50.848;4.108;2022-08-26T02:05:28;21.50;99.90
19435;DHT22;9853;50.848;4.108;2022-08-26T02:07:31;21.20;99.90
19435;DHT22;9853;50.848;4.108;2022-08-26T02:09:32;21.10;99.90
19435;DHT22;9853;50.848;4.108;2022-08-26T02:11:34;21.40;99.90
19435;DHT22;9853;50.848;4.108;2022-08-26T02:13:41;21.40;99.90
19435;DHT22;9853;50.848;4.108;2022-08-26T02:15:43;21.50;99.90
19435;DHT22;9853;50.848;4.108;2022-08-26T02:17:45;21.40;99.90
19435;DHT22;9853;50.848;4.108;2022-08-26T02:19:48;21.20;99.90
19435;DHT22;9853;50.848;4.108;2022-08-26T02:21:50;21.20;99.90
19435;DHT22;9853;50.848;4.108;2022-08-26T02:23:51;21.10;99.90
19435;DHT22;9853;50.848;4.108;2022-08-26T02:26:04;21.10;99.90
19435;DHT22;9853;50.848;4.108;2022-08-26T02:28:09;20.90;99.90
19435;DHT22;9853;50.848;4.108;2022-08-26T02:30:18;21.00;99.90
19435;DHT22;9853;50.848;4.108;2022-08-26T02:32:19;20.90;99.90
19435;DHT22;9853;50.848;4.108;2022-08-26T02:34:28;20.90;99.90
19435;DHT22;9853;50.848;4.108;2022-08-26T02:36:29;21.00;99.90
19435;DHT22;9853;50.848;4.108;2022-08-26T02:38:30;21.00;99.90
19435;DHT22;9853;50.848;4.108;2022-08-26T02:40:34;20.80;99.90
19435;DHT22;9853;50.848;4.108;2022-08-26T02:42:35;20.90;99.90
19435;DHT22;9853;50.848;4.108;2022-08-26T02:44:37;21.00;99.90
19435;DHT22;9853;50.848;4.108;2022-08-26T02:46:37;21.10;99.90
19435;DHT22;9853;50.848;4.108;2022-08-26T02:48:38;21.10;99.90
19435;DHT22;9853;50.848;4.108;2022-08-26T02:50:39;21.00;99.90
19435;DHT22;9853;50.848;4.108;2022-08-26T02:52:40;20.90;99.90
19435;DHT22;9853;50.848;4.108;2022-08-26T02:54:41;21.10;99.90
19435;DHT22;9853;50.848;4.108;2022-08-26T02:56:43;21.10;99.90
19435;DHT22;9853;50.848;4.108;2022-08-26T02:58:43;21.10;99.90
19435;DHT22;9853;50.848;4.108;2022-08-26T03:00:44;21.10;99.90
19435;DHT22;9853;50.848;4.108;2022-08-26T03:02:47;21.20;99.90
19435;DHT22;9853;50.848;4.108;2022-08-26T03:04:48;21.20;99.90
19435;DHT22;9853;50.848;4.108;2022-08-26T03:06:50;21.20;99.90
19435;DHT22;9853;50.848;4.108;2022-08-26T03:08:51;21.10;99.90
19435;DHT22;9853;50.848;4.108;2022-08-26T03:10:51;21.10;99.90
19435;DHT22;9853;50.848;4.108;2022-08-26T03:12:52;21.10;99.90
19435;DHT22;9853;50.848;4.108;2022-08-26T03:14:53;21.20;99.90
19435;DHT22;9853;50.848;4.108;2022-08-26T03:16:54;21.20;99.90
19435;DHT22;9853;50.848;4.108;2022-08-26T03:18:55;21.20;99.90
19435;DHT22;9853;50.848;4.108;2022-08-26T03:20:56;21.10;99.90
19435;DHT22;9853;50.848;4.108;2022-08-26T03:22:57;21.30;99.90
19435;DHT22;9853;50.848;4.108;2022-08-26T03:24:57;21.30;99.90
19435;DHT22;9853;50.848;4.108;2022-08-26T03:26:58;21.00;99.90
19435;DHT22;9853;50.848;4.108;2022-08-26T03:28:59;20.90;99.90
19435;DHT22;9853;50.848;4.108;2022-08-26T03:31:18;21.00;99.90
19435;DHT22;9853;50.848;4.108;2022-08-26T03:33:19;21.10;99.90
19435;DHT22;9853;50.848;4.108;2022-08-26T03:35:21;21.10;99.90
19435;DHT22;9853;50.848;4.108;2022-08-26T03:37:22;21.20;99.90
19435;DHT22;9853;50.848;4.108;2022-08-26T03:39:23;21.10;99.90
19435;DHT22;9853;50.848;4.108;2022-08-26T03:41:24;21.10;99.90
19435;DHT22;9853;50.848;4.108;2022-08-26T03:43:25;21.00;99.90
19435;DHT22;9853;50.848;4.108;2022-08-26T03:45:27;21.10;99.90
19435;DHT22;9853;50.848;4.108;2022-08-26T03:47:27;21.00;99.90
19435;DHT22;9853;50.848;4.108;2022-08-26T03:49:30;20.90;99.90
19435;DHT22;9853;50.848;4.108;2022-08-26T03:51:31;21.00;99.90
19435;DHT22;9853;50.848;4.108;2022-08-26T03:53:32;21.00;99.90
19435;DHT22;9853;50.848;4.108;2022-08-26T03:55:33;21.00;99.90
19435;DHT22;9853;50.848;4.108;2022-08-26T03:57:34;20.90;99.90
19435;DHT22;9853;50.848;4.108;2022-08-26T03:59:34;20.90;99.90
19435;DHT22;9853;50.848;4.108;2022-08-26T04:01:35;20.80;99.90
19435;DHT22;9853;50.848;4.108;2022-08-26T04:03:36;20.80;99.90
19435;DHT22;9853;50.848;4.108;2022-08-26T04:05:55;20.90;99.90
19435;DHT22;9853;50.848;4.108;2022-08-26T04:07:56;20.90;99.90
19435;DHT22;9853;50.848;4.108;2022-08-26T04:09:58;20.90;99.90
19435;DHT22;9853;50.848;4.108;2022-08-26T04:11:58;21.00;99.90
19435;DHT22;9853;50.848;4.108;2022-08-26T04:14:00;21.00;99.90
19435;DHT22;9853;50.848;4.108;2022-08-26T04:16:01;21.00;99.90
19435;DHT22;9853;50.848;4.108;2022-08-26T04:18:02;21.00;99.90
19435;DHT22;9853;50.848;4.108;2022-08-26T04:20:05;21.00;99.90
19435;DHT22;9853;50.848;4.108;2022-08-26T04:22:06;21.10;99.90
19435;DHT22;9853;50.848;4.108;2022-08-26T04:24:09;21.00;99.90
19435;DHT22;9853;50.848;4.108;2022-08-26T04:26:10;20.90;99.90
19435;DHT22;9853;50.848;4.108;2022-08-26T04:28:11;20.80;99.90
19435;DHT22;9853;50.848;4.108;2022-08-26T04:30:13;20.90;99.90
19435;DHT22;9853;50.848;4.108;2022-08-26T04:32:14;20.80;99.90
19435;DHT22;9853;50.848;4.108;2022-08-26T04:34:16;20.80;99.90
19435;DHT22;9853;50.848;4.108;2022-08-26T04:36:17;20.80;99.90
19435;DHT22;9853;50.848;4.108;2022-08-26T04:38:18;20.80;99.90
19435;DHT22;9853;50.848;4.108;2022-08-26T04:40:19;20.70;99.90
19435;DHT22;9853;50.848;4.108;2022-08-26T04:42:20;20.60;99.90
19435;DHT22;9853;50.848;4.108;2022-08-26T04:44:22;20.60;99.90
19435;DHT22;9853;50.848;4.108;2022-08-26T04:46:24;20.70;99.90
19435;DHT22;9853;50.848;4.108;2022-08-26T04:48:27;20.60;99.90
19435;DHT22;9853;50.848;4.108;2022-08-26T04:50:28;20.70;99.90
19435;DHT22;9853;50.848;4.108;2022-08-26T04:52:30;20.70;99.90
19435;DHT22;9853;50.848;4.108;2022-08-26T04:54:31;20.70;99.90
19435;DHT22;9853;50.848;4.108;2022-08-26T04:56:36;20.80;99.90
19435;DHT22;9853;50.848;4.108;2022-08-26T04:58:38;20.80;99.90
19435;DHT22;9853;50.848;4.108;2022-08-26T05:00:38;20.80;99.90
19435;DHT22;9853;50.848;4.108;2022-08-26T05:02:39;20.90;99.90
19435;DHT22;9853;50.848;4.108;2022-08-26T05:04:40;20.90;99.90
19435;DHT22;9853;50.848;4.108;2022-08-26T05:06:43;20.90;99.90
19435;DHT22;9853;50.848;4.108;2022-08-26T05:08:43;21.00;99.90
19435;DHT22;9853;50.848;4.108;2022-08-26T05:10:51;21.00;99.90
19435;DHT22;9853;50.848;4.108;2022-08-26T05:12:54;21.10;99.90
19435;DHT22;9853;50.848;4.108;2022-08-26T05:14:54;21.10;99.90
19435;DHT22;9853;50.848;4.108;2022-08-26T05:16:55;21.10;99.90
19435;DHT22;9853;50.848;4.108;2022-08-26T05:18:56;21.20;99.90
19435;DHT22;9853;50.848;4.108;2022-08-26T05:20:57;21.10;99.90
19435;DHT22;9853;50.848;4.108;2022-08-26T05:22:59;21.20;99.90
19435;DHT22;9853;50.848;4.108;2022-08-26T05:25:00;21.20;99.90
19435;DHT22;9853;50.848;4.108;2022-08-26T05:27:01;21.30;99.90
19435;DHT22;9853;50.848;4.108;2022-08-26T05:29:02;21.30;99.90
19435;DHT22;9853;50.848;4.108;2022-08-26T05:31:19;21.30;99.90
19435;DHT22;9853;50.848;4.108;2022-08-26T05:33:20;21.30;99.90
19435;DHT22;9853;50.848;4.108;2022-08-26T05:35:21;21.30;99.90
19435;DHT22;9853;50.848;4.108;2022-08-26T05:37:22;21.30;99.90
19435;DHT22;9853;50.848;4.108;2022-08-26T05:39:23;21.40;99.90
19435;DHT22;9853;50.848;4.108;2022-08-26T05:41:26;21.40;99.90
19435;DHT22;9853;50.848;4.108;2022-08-26T05:43:28;21.40;99.90
19435;DHT22;9853;50.848;4.108;2022-08-26T05:45:29;21.40;99.90
19435;DHT22;9853;50.848;4.108;2022-08-26T05:47:32;21.40;99.90
19435;DHT22;9853;50.848;4.108;2022-08-26T05:49:32;21.40;99.90
19435;DHT22;9853;50.848;4.108;2022-08-26T05:51:34;21.30;99.90
19435;DHT22;9853;50.848;4.108;2022-08-26T05:53:35;21.30;99.90
19435;DHT22;9853;50.848;4.108;2022-08-26T05:55:50;21.40;99.90
19435;DHT22;9853;50.848;4.108;2022-08-26T05:57:51;21.50;99.90
19435;DHT22;9853;50.848;4.108;2022-08-26T05:59:52;21.40;99.90
19435;DHT22;9853;50.848;4.108;2022-08-26T06:01:53;21.80;99.90
19435;DHT22;9853;50.848;4.108;2022-08-26T06:03:57;22.20;99.90
19435;DHT22;9853;50.848;4.108;2022-08-26T06:05:58;22.00;99.90
19435;DHT22;9853;50.848;4.108;2022-08-26T06:07:59;21.90;99.90
19435;DHT22;9853;50.848;4.108;2022-08-26T06:10:13;21.70;99.90
19435;DHT22;9853;50.848;4.108;2022-08-26T06:12:14;21.70;99.90
19435;DHT22;9853;50.848;4.108;2022-08-26T06:14:15;21.70;99.90
19435;DHT22;9853;50.848;4.108;2022-08-26T06:16:20;21.80;99.90
19435;DHT22;9853;50.848;4.108;2022-08-26T06:18:25;21.90;99.90
19435;DHT22;9853;50.848;4.108;2022-08-26T06:20:34;21.80;99.90
19435;DHT22;9853;50.848;4.108;2022-08-26T06:22:42;21.90;99.90
19435;DHT22;9853;50.848;4.108;2022-08-26T06:25:13;21.80;99.90
19435;DHT22;9853;50.848;4.108;2022-08-26T06:27:33;21.90;99.90
19435;DHT22;9853;50.848;4.108;2022-08-26T06:29:35;22.00;99.90
19435;DHT22;9853;50.848;4.108;2022-08-26T06:31:36;22.00;99.90
19435;DHT22;9853;50.848;4.108;2022-08-26T06:33:36;22.00;99.90
19435;DHT22;9853;50.848;4.108;2022-08-26T06:35:39;22.10;99.90
19435;DHT22;9853;50.848;4.108;2022-08-26T06:37:40;22.00;99.90
19435;DHT22;9853;50.848;4.108;2022-08-26T06:39:42;22.10;99.90
19435;DHT22;9853;50.848;4.108;2022-08-26T06:41:43;22.40;99.90
19435;DHT22;9853;50.848;4.108;2022-08-26T06:43:51;22.50;99.90
19435;DHT22;9853;50.848;4.108;2022-08-26T06:46:00;22.40;99.90
19435;DHT22;9853;50.848;4.108;2022-08-26T06:48:01;22.30;99.90
19435;DHT22;9853;50.848;4.108;2022-08-26T06:50:02;22.10;99.90
19435;DHT22;9853;50.848;4.108;2022-08-26T06:52:03;22.10;99.90
19435;DHT22;9853;50.848;4.108;2022-08-26T06:54:05;22.10;99.90
19435;DHT22;9853;50.848;4.108;2022-08-26T06:56:08;22.20;99.90
19435;DHT22;9853;50.848;4.108;2022-08-26T06:58:09;22.00;99.90
19435;DHT22;9853;50.848;4.108;2022-08-26T07:00:11;21.90;99.90
19435;DHT22;9853;50.848;4.108;2022-08-26T07:02:12;21.90;99.90
19435;DHT22;9853;50.848;4.108;2022-08-26T07:04:15;21.90;99.90
19435;DHT22;9853;50.848;4.108;2022-08-26T07:06:16;21.90;99.90
19435;DHT22;9853;50.848;4.108;2022-08-26T07:08:20;22.00;99.90
19435;DHT22;9853;50.848;4.108;2022-08-26T07:10:21;21.90;99.90
19435;DHT22;9853;50.848;4.108;2022-08-26T07:12:23;22.10;99.90
19435;DHT22;9853;50.848;4.108;2022-08-26T07:14:25;22.00;99.90
19435;DHT22;9853;50.848;4.108;2022-08-26T07:16:26;22.00;99.90
19435;DHT22;9853;50.848;4.108;2022-08-26T07:18:27;22.10;99.90
19435;DHT22;9853;50.848;4.108;2022-08-26T07:20:28;22.10;99.90
19435;DHT22;9853;50.848;4.108;2022-08-26T07:22:28;22.00;99.90
19435;DHT22;9853;50.848;4.108;2022-08-26T07:24:36;21.90;99.90
19435;DHT22;9853;50.848;4.108;2022-08-26T07:26:38;21.90;99.90
19435;DHT22;9853;50.848;4.108;2022-08-26T07:28:39;22.00;99.90
19435;DHT22;9853;50.848;4.108;2022-08-26T07:30:41;22.00;99.90
19435;DHT22;9853;50.848;4.108;2022-08-26T07:32:42;22.20;99.90
19435;DHT22;9853;50.848;4.108;2022-08-26T07:34:43;22.10;99.90
19435;DHT22;9853;50.848;4.108;2022-08-26T07:36:44;22.10;99.90
19435;DHT22;9853;50.848;4.108;2022-08-26T07:38:45;22.00;99.90
19435;DHT22;9853;50.848;4.108;2022-08-26T07:40:47;22.00;99.90
19435;DHT22;9853;50.848;4.108;2022-08-26T07:42:48;22.00;99.90
19435;DHT22;9853;50.848;4.108;2022-08-26T07:44:49;22.20;99.90
19435;DHT22;9853;50.848;4.108;2022-08-26T07:46:50;22.30;99.90
19435;DHT22;9853;50.848;4.108;2022-08-26T07:48:51;22.30;99.90
19435;DHT22;9853;50.848;4.108;2022-08-26T07:50:52;22.10;99.90
19435;DHT22;9853;50.848;4.108;2022-08-26T07:52:53;22.40;99.90
19435;DHT22;9853;50.848;4.108;2022-08-26T07:54:55;22.50;99.90
19435;DHT22;9853;50.848;4.108;2022-08-26T07:56:57;22.50;99.90
19435;DHT22;9853;50.848;4.108;2022-08-26T07:58:58;22.60;99.90
19435;DHT22;9853;50.848;4.108;2022-08-26T08:00:59;22.70;99.90
19435;DHT22;9853;50.848;4.108;2022-08-26T08:03:01;22.60;99.90
19435;DHT22;9853;50.848;4.108;2022-08-26T08:05:02;22.50;99.90
19435;DHT22;9853;50.848;4.108;2022-08-26T08:07:02;22.40;99.90
19435;DHT22;9853;50.848;4.108;2022-08-26T08:09:04;22.50;99.90
19435;DHT22;9853;50.848;4.108;2022-08-26T08:11:05;22.40;99.90
19435;DHT22;9853;50.848;4.108;2022-08-26T08:13:06;22.70;99.90
19435;DHT22;9853;50.848;4.108;2022-08-26T08:15:08;22.90;99.90
19435;DHT22;9853;50.848;4.108;2022-08-26T08:17:09;23.20;99.90
19435;DHT22;9853;50.848;4.108;2022-08-26T08:19:10;23.30;99.90
19435;DHT22;9853;50.848;4.108;2022-08-26T08:21:11;23.30;99.90
19435;DHT22;9853;50.848;4.108;2022-08-26T08:23:12;23.50;99.90
19435;DHT22;9853;50.848;4.108;2022-08-26T08:25:14;23.80;99.90
19435;DHT22;9853;50.848;4.108;2022-08-26T08:27:15;23.90;99.90
19435;DHT22;9853;50.848;4.108;2022-08-26T08:29:15;23.90;99.90
19435;DHT22;9853;50.848;4.108;2022-08-26T08:31:21;23.40;99.90
19435;DHT22;9853;50.848;4.108;2022-08-26T08:33:22;23.20;99.90
19435;DHT22;9853;50.848;4.108;2022-08-26T08:35:23;22.90;99.90
19435;DHT22;9853;50.848;4.108;2022-08-26T08:37:25;23.20;99.90
19435;DHT22;9853;50.848;4.108;2022-08-26T08:39:26;23.30;99.90
19435;DHT22;9853;50.848;4.108;2022-08-26T08:43:41;23.60;99.90
19435;DHT22;9853;50.848;4.108;2022-08-26T08:45:53;24.30;99.90
19435;DHT22;9853;50.848;4.108;2022-08-26T08:47:58;24.50;99.90
19435;DHT22;9853;50.848;4.108;2022-08-26T08:50:25;24.40;99.90
19435;DHT22;9853;50.848;4.108;2022-08-26T08:52:30;24.20;99.90
19435;DHT22;9853;50.848;4.108;2022-08-26T08:54:32;24.00;99.90
19435;DHT22;9853;50.848;4.108;2022-08-26T08:57:00;23.80;99.90
19435;DHT22;9853;50.848;4.108;2022-08-26T08:59:19;23.80;99.90
19435;DHT22;9853;50.848;4.108;2022-08-26T09:06:13;23.80;99.90
19435;DHT22;9853;50.848;4.108;2022-08-26T09:08:23;23.90;99.90
19435;DHT22;9853;50.848;4.108;2022-08-26T09:10:33;24.40;99.90
19435;DHT22;9853;50.848;4.108;2022-08-26T09:12:34;24.70;99.90
19435;DHT22;9853;50.848;4.108;2022-08-26T09:14:35;25.10;99.90
19435;DHT22;9853;50.848;4.108;2022-08-26T09:17:04;25.00;99.90
19435;DHT22;9853;50.848;4.108;2022-08-26T09:21:26;24.30;99.90
19435;DHT22;9853;50.848;4.108;2022-08-26T09:23:27;24.10;99.90
19435;DHT22;9853;50.848;4.108;2022-08-26T09:25:28;24.00;99.90
19435;DHT22;9853;50.848;4.108;2022-08-26T09:27:41;24.10;99.90
19435;DHT22;9853;50.848;4.108;2022-08-26T09:29:42;24.00;99.90
19435;DHT22;9853;50.848;4.108;2022-08-26T09:31:44;23.60;99.90
19435;DHT22;9853;50.848;4.108;2022-08-26T09:33:46;23.30;99.90
19435;DHT22;9853;50.848;4.108;2022-08-26T09:35:46;23.00;99.90
19435;DHT22;9853;50.848;4.108;2022-08-26T09:37:49;22.60;99.90
19435;DHT22;9853;50.848;4.108;2022-08-26T09:39:49;22.20;99.90
19435;DHT22;9853;50.848;4.108;2022-08-26T09:42:12;22.00;99.90
19435;DHT22;9853;50.848;4.108;2022-08-26T09:44:19;22.00;99.90
19435;DHT22;9853;50.848;4.108;2022-08-26T09:46:24;22.20;99.90
19435;DHT22;9853;50.848;4.108;2022-08-26T09:48:33;22.20;99.90
19435;DHT22;9853;50.848;4.108;2022-08-26T09:50:36;22.30;99.90
19435;DHT22;9853;50.848;4.108;2022-08-26T09:52:37;22.70;99.90
19435;DHT22;9853;50.848;4.108;2022-08-26T09:54:39;22.90;99.90
19435;DHT22;9853;50.848;4.108;2022-08-26T09:56:40;23.00;99.90
19435;DHT22;9853;50.848;4.108;2022-08-26T09:58:45;23.30;99.90
19435;DHT22;9853;50.848;4.108;2022-08-26T10:00:55;23.10;99.90
19435;DHT22;9853;50.848;4.108;2022-08-26T10:02:58;22.90;99.90
19435;DHT22;9853;50.848;4.108;2022-08-26T10:05:05;22.90;99.90
19435;DHT22;9853;50.848;4.108;2022-08-26T10:07:06;22.90;99.90
19435;DHT22;9853;50.848;4.108;2022-08-26T10:09:11;22.90;99.90
19435;DHT22;9853;50.848;4.108;2022-08-26T10:13:42;23.30;99.90
19435;DHT22;9853;50.848;4.108;2022-08-26T10:16:21;23.70;99.90
19435;DHT22;9853;50.848;4.108;2022-08-26T10:18:41;24.00;99.90
19435;DHT22;9853;50.848;4.108;2022-08-26T10:23:12;24.50;99.90
19435;DHT22;9853;50.848;4.108;2022-08-26T10:25:20;24.60;99.90
19435;DHT22;9853;50.848;4.108;2022-08-26T10:30:04;24.10;99.90
19435;DHT22;9853;50.848;4.108;2022-08-26T10:32:15;24.20;99.90
19435;DHT22;9853;50.848;4.108;2022-08-26T10:34:21;24.40;99.90
19435;DHT22;9853;50.848;4.108;2022-08-26T10:36:24;24.50;99.90
19435;DHT22;9853;50.848;4.108;2022-08-26T10:38:45;24.50;99.90
19435;DHT22;9853;50.848;4.108;2022-08-26T10:40:55;24.20;99.90
19435;DHT22;9853;50.848;4.108;2022-08-26T10:43:05;24.40;99.90
19435;DHT22;9853;50.848;4.108;2022-08-26T10:45:12;24.50;99.90
19435;DHT22;9853;50.848;4.108;2022-08-26T10:47:27;24.60;99.90
19435;DHT22;9853;50.848;4.108;2022-08-26T10:49:34;24.60;99.90
19435;DHT22;9853;50.848;4.108;2022-08-26T10:51:57;24.80;99.90
19435;DHT22;9853;50.848;4.108;2022-08-26T10:59:14;24.40;99.90
19435;DHT22;9853;50.848;4.108;2022-08-26T11:01:12;24.50;99.90
19435;DHT22;9853;50.848;4.108;2022-08-26T11:03:57;24.40;99.90
19435;DHT22;9853;50.848;4.108;2022-08-26T11:14:37;24.20;99.90
19435;DHT22;9853;50.848;4.108;2022-08-26T11:16:43;24.50;99.90
19435;DHT22;9853;50.848;4.108;2022-08-26T11:18:45;24.60;99.90
19435;DHT22;9853;50.848;4.108;2022-08-26T11:20:46;24.50;99.90
19435;DHT22;9853;50.848;4.108;2022-08-26T11:22:48;24.30;99.90
19435;DHT22;9853;50.848;4.108;2022-08-26T11:26:55;24.20;99.90
19435;DHT22;9853;50.848;4.108;2022-08-26T11:28:56;24.10;99.90
19435;DHT22;9853;50.848;4.108;2022-08-26T11:30:57;24.00;99.90
19435;DHT22;9853;50.848;4.108;2022-08-26T11:32:58;24.20;99.90
19435;DHT22;9853;50.848;4.108;2022-08-26T11:35:04;24.30;99.90
19435;DHT22;9853;50.848;4.108;2022-08-26T11:37:11;24.40;99.90
19435;DHT22;9853;50.848;4.108;2022-08-26T11:39:20;24.30;99.90
19435;DHT22;9853;50.848;4.108;2022-08-26T11:41:23;24.80;99.90
19435;DHT22;9853;50.848;4.108;2022-08-26T11:43:29;24.90;99.90
19435;DHT22;9853;50.848;4.108;2022-08-26T11:47:33;24.70;99.90
19435;DHT22;9853;50.848;4.108;2022-08-26T11:49:34;24.80;99.90
19435;DHT22;9853;50.848;4.108;2022-08-26T11:51:37;24.90;99.90
19435;DHT22;9853;50.848;4.108;2022-08-26T11:53:40;24.90;99.90
19435;DHT22;9853;50.848;4.108;2022-08-26T11:55:42;24.80;99.90
19435;DHT22;9853;50.848;4.108;2022-08-26T11:57:50;24.80;99.90
19435;DHT22;9853;50.848;4.108;2022-08-26T11:59:52;24.90;99.90
19435;DHT22;9853;50.848;4.108;2022-08-26T12:01:55;25.10;99.90
19435;DHT22;9853;50.848;4.108;2022-08-26T12:03:56;25.10;99.90
19435;DHT22;9853;50.848;4.108;2022-08-26T12:05:57;25.00;99.90
19435;DHT22;9853;50.848;4.108;2022-08-26T12:08:04;24.90;99.90
19435;DHT22;9853;50.848;4.108;2022-08-26T12:10:23;24.90;99.90
19435;DHT22;9853;50.848;4.108;2022-08-26T12:12:29;24.50;99.90
19435;DHT22;9853;50.848;4.108;2022-08-26T12:14:30;24.30;99.90
19435;DHT22;9853;50.848;4.108;2022-08-26T12:16:37;24.30;99.90
19435;DHT22;9853;50.848;4.108;2022-08-26T12:18:39;24.40;99.90
19435;DHT22;9853;50.848;4.108;2022-08-26T12:20:40;24.50;99.90
19435;DHT22;9853;50.848;4.108;2022-08-26T12:22:57;24.40;99.90
19435;DHT22;9853;50.848;4.108;2022-08-26T12:25:02;24.50;99.90
19435;DHT22;9853;50.848;4.108;2022-08-26T12:27:22;24.70;99.90
19435;DHT22;9853;50.848;4.108;2022-08-26T12:29:26;25.00;99.90
19435;DHT22;9853;50.848;4.108;2022-08-26T12:31:36;24.80;99.90
19435;DHT22;9853;50.848;4.108;2022-08-26T12:33:40;24.60;99.90
19435;DHT22;9853;50.848;4.108;2022-08-26T12:35:41;24.40;99.90
19435;DHT22;9853;50.848;4.108;2022-08-26T12:37:49;24.20;99.90
19435;DHT22;9853;50.848;4.108;2022-08-26T12:39:50;24.00;99.90
19435;DHT22;9853;50.848;4.108;2022-08-26T12:41:59;23.70;99.90
19435;DHT22;9853;50.848;4.108;2022-08-26T12:44:00;24.00;99.90
19435;DHT22;9853;50.848;4.108;2022-08-26T12:46:01;24.40;99.90
19435;DHT22;9853;50.848;4.108;2022-08-26T12:48:19;24.40;99.90
19435;DHT22;9853;50.848;4.108;2022-08-26T12:50:33;24.20;99.90
19435;DHT22;9853;50.848;4.108;2022-08-26T12:55:01;24.10;99.90
19435;DHT22;9853;50.848;4.108;2022-08-26T12:57:10;24.10;99.90
19435;DHT22;9853;50.848;4.108;2022-08-26T12:59:23;24.60;99.90
19435;DHT22;9853;50.848;4.108;2022-08-26T13:01:24;24.90;99.90
19435;DHT22;9853;50.848;4.108;2022-08-26T13:05:34;25.20;99.90
19435;DHT22;9853;50.848;4.108;2022-08-26T13:07:37;25.00;99.90
19435;DHT22;9853;50.848;4.108;2022-08-26T13:09:38;25.00;99.90
19435;DHT22;9853;50.848;4.108;2022-08-26T13:13:39;24.80;99.90
19435;DHT22;9853;50.848;4.108;2022-08-26T13:15:40;24.60;99.90
19435;DHT22;9853;50.848;4.108;2022-08-26T13:17:41;24.60;99.90
19435;DHT22;9853;50.848;4.108;2022-08-26T13:19:42;24.50;99.90
19435;DHT22;9853;50.848;4.108;2022-08-26T13:21:46;24.30;99.90
19435;DHT22;9853;50.848;4.108;2022-08-26T13:23:48;24.50;99.90
19435;DHT22;9853;50.848;4.108;2022-08-26T13:25:50;24.30;99.90
19435;DHT22;9853;50.848;4.108;2022-08-26T13:27:51;24.40;99.90
19435;DHT22;9853;50.848;4.108;2022-08-26T13:29:52;24.50;99.90
19435;DHT22;9853;50.848;4.108;2022-08-26T13:31:53;24.50;99.90
19435;DHT22;9853;50.848;4.108;2022-08-26T13:33:54;24.30;99.90
19435;DHT22;9853;50.848;4.108;2022-08-26T13:35:55;24.20;99.90
19435;DHT22;9853;50.848;4.108;2022-08-26T13:37:56;24.40;99.90
19435;DHT22;9853;50.848;4.108;2022-08-26T13:39:57;24.50;99.90
19435;DHT22;9853;50.848;4.108;2022-08-26T13:41:58;24.50;99.90
19435;DHT22;9853;50.848;4.108;2022-08-26T13:43:59;24.50;99.90
19435;DHT22;9853;50.848;4.108;2022-08-26T13:46:00;24.30;99.90
19435;DHT22;9853;50.848;4.108;2022-08-26T13:48:01;24.20;99.90
19435;DHT22;9853;50.848;4.108;2022-08-26T13:50:03;24.20;99.90
19435;DHT22;9853;50.848;4.108;2022-08-26T13:52:05;24.20;99.90
19435;DHT22;9853;50.848;4.108;2022-08-26T13:54:06;24.40;99.90
19435;DHT22;9853;50.848;4.108;2022-08-26T13:56:07;24.50;99.90